Time;durP1;ratioP1;P1;durP2;ratioP2;P2;SDS_P1;SDS_P2;PMS_P1;PMS_P2;Temp;Humidity;BMP_temperature;BMP_pressure;BME280_temperature;BME280_humidity;BME280_pressure;Samples;Min_cycle;Max_cycle;Signal;HPM_P1;HPM_P2
2022/12/30 00:00:59;;;;;;;12.95;3.88;;;7.30;99.90;;;;;;5087258;28;20028;-71
2022/12/30 00:03:25;;;;;;;18.55;3.97;;;7.30;99.90;;;;;;5105697;28;20036;-73
2022/12/30 00:05:51;;;;;;;12.18;3.72;;;7.30;99.90;;;;;;5106648;28;20097;-71
2022/12/30 00:11:01;;;;;;;13.65;3.13;;;7.30;99.90;;;;;;5105078;28;20083;-71
2022/12/30 00:33:22;;;;;;;16.80;3.72;;;7.30;99.90;;;;;;5091601;28;20042;-73
2022/12/30 00:35:48;;;;;;;17.30;4.32;;;7.30;99.90;;;;;;5094267;28;20023;-71
2022/12/30 00:38:14;;;;;;;14.02;4.30;;;7.30;99.90;;;;;;5090897;28;20119;-71
2022/12/30 00:43:07;;;;;;;15.98;3.50;;;7.30;99.90;;;;;;5074270;28;20172;-71
2022/12/30 00:43:28;;;;;;;15.50;3.20;;;7.30;99.90;;;;;;5110540;28;20028;-72
2022/12/30 00:45:54;;;;;;;15.48;3.38;;;7.30;99.90;;;;;;5093828;28;20035;-71
2022/12/30 00:56:36;;;;;;;11.32;2.70;;;7.30;99.90;;;;;;5112996;28;20084;-71
2022/12/30 00:59:04;;;;;;;5.70;2.83;;;7.20;99.90;;;;;;5098025;28;20036;-70
2022/12/30 01:01:30;;;;;;;11.52;2.50;;;7.10;99.90;;;;;;5114184;27;20039;-73
2022/12/30 01:03:56;;;;;;;9.30;3.45;;;7.10;99.90;;;;;;5115084;28;20031;-73
2022/12/30 01:06:21;;;;;;;9.98;3.45;;;7.10;99.90;;;;;;5120457;28;20034;-73
2022/12/30 01:08:47;;;;;;;18.95;3.85;;;7.00;99.90;;;;;;5095417;28;20027;-73
2022/12/30 01:11:13;;;;;;;16.90;4.63;;;7.00;99.90;;;;;;5089838;28;20024;-73
2022/12/30 01:13:39;;;;;;;15.70;3.83;;;7.00;99.90;;;;;;5076488;28;20035;-74
2022/12/30 01:16:13;;;;;;;10.90;3.53;;;7.00;99.90;;;;;;5090462;28;20035;-73
2022/12/30 01:18:39;;;;;;;12.75;3.72;;;7.00;99.90;;;;;;5111352;28;20044;-73
2022/12/30 01:21:06;;;;;;;16.25;5.03;;;7.00;99.90;;;;;;5092872;28;20444;-72
2022/12/30 01:23:32;;;;;;;19.13;4.13;;;7.00;99.90;;;;;;5115223;28;20043;-72
2022/12/30 01:26:03;;;;;;;15.82;4.22;;;7.00;99.90;;;;;;5109316;28;20116;-73
2022/12/30 01:28:30;;;;;;;12.45;3.45;;;7.00;99.90;;;;;;5108561;27;20112;-73
2022/12/30 01:30:57;;;;;;;19.27;4.32;;;7.00;99.90;;;;;;5074168;28;20399;-73
2022/12/30 01:33:23;;;;;;;35.28;4.95;;;7.00;99.90;;;;;;5089305;28;20027;-72
2022/12/30 01:35:49;;;;;;;16.70;3.95;;;7.00;99.90;;;;;;5075989;28;20029;-72
2022/12/30 01:38:15;;;;;;;17.05;4.03;;;7.00;99.90;;;;;;5075458;28;20110;-72
2022/12/30 01:40:42;;;;;;;19.20;4.72;;;7.00;99.90;;;;;;5106168;28;20119;-70
2022/12/30 01:43:13;;;;;;;13.82;3.47;;;7.00;99.90;;;;;;5104801;28;20032;-71
2022/12/30 01:45:40;;;;;;;15.65;4.65;;;7.00;99.90;;;;;;5089116;28;20393;-72
2022/12/30 01:48:24;;;;;;;13.85;3.45;;;7.00;99.90;;;;;;5109302;28;20497;-70
2022/12/30 01:50:58;;;;;;;20.80;4.70;;;7.00;99.90;;;;;;5091078;28;20036;-70
2022/12/30 01:53:30;;;;;;;17.02;4.35;;;7.00;99.90;;;;;;5111668;27;20052;-71
2022/12/30 01:56:21;;;;;;;14.45;4.72;;;7.00;99.90;;;;;;5089725;28;20043;-71
2022/12/30 01:58:49;;;;;;;19.83;3.97;;;7.00;99.90;;;;;;5107319;28;20552;-71
2022/12/30 02:01:16;;;;;;;17.17;4.30;;;7.00;99.90;;;;;;5110838;27;20118;-71
2022/12/30 02:04:05;;;;;;;13.05;3.67;;;6.90;99.90;;;;;;5091803;28;20034;-71
2022/12/30 02:06:43;;;;;;;16.08;3.53;;;6.90;99.90;;;;;;5113634;28;20508;-71
2022/12/30 02:09:09;;;;;;;13.80;3.72;;;6.90;99.90;;;;;;5109761;28;20111;-71
2022/12/30 02:11:35;;;;;;;18.52;4.38;;;6.90;99.90;;;;;;5106731;28;20095;-71
2022/12/30 02:14:02;;;;;;;18.45;3.55;;;6.80;99.90;;;;;;5107576;28;20036;-71
2022/12/30 02:17:05;;;;;;;17.00;3.50;;;6.90;99.90;;;;;;5089223;28;20035;-71
2022/12/30 02:20:08;;;;;;;15.35;4.40;;;6.90;99.90;;;;;;5071416;28;20027;-71
2022/12/30 02:23:02;;;;;;;17.70;3.75;;;6.90;99.90;;;;;;5108075;28;20035;-73
2022/12/30 02:25:39;;;;;;;15.27;5.20;;;6.80;99.90;;;;;;5109106;28;20035;-72
2022/12/30 02:28:26;;;;;;;16.42;4.22;;;6.80;99.90;;;;;;5070985;28;20091;-72
2022/12/30 02:31:20;;;;;;;16.40;3.85;;;6.80;99.90;;;;;;5088495;28;20028;-73
2022/12/30 02:34:10;;;;;;;17.45;4.93;;;6.80;99.90;;;;;;5089025;28;20491;-71
2022/12/30 02:37:00;;;;;;;24.63;6.60;;;6.70;99.90;;;;;;5110478;28;20027;-73
2022/12/30 02:39:39;;;;;;;16.23;3.88;;;6.70;99.90;;;;;;5093764;28;20042;-73
2022/12/30 02:45:08;;;;;;;16.13;4.53;;;6.70;99.90;;;;;;5122090;28;20126;-71
2022/12/30 02:47:51;;;;;;;15.55;4.00;;;6.80;99.90;;;;;;5114523;27;20028;-71
2022/12/30 02:53:14;;;;;;;20.20;4.63;;;6.80;99.90;;;;;;5108529;28;20035;-71
2022/12/30 02:55:41;;;;;;;13.52;3.95;;;6.80;99.90;;;;;;5108210;28;20042;-71
2022/12/30 02:58:06;;;;;;;18.52;3.92;;;6.90;99.90;;;;;;5090465;28;20059;-71
2022/12/30 03:04:21;;;;;;;16.40;3.88;;;6.90;99.90;;;;;;5107174;28;20111;-71
2022/12/30 03:07:18;;;;;;;21.17;4.35;;;6.90;99.90;;;;;;5106702;28;20156;-71
2022/12/30 03:13:32;;;;;;;23.65;3.97;;;6.90;99.90;;;;;;5109131;28;20030;-73
2022/12/30 03:16:21;;;;;;;16.23;4.18;;;7.00;99.90;;;;;;5033188;28;20035;-71
2022/12/30 03:18:48;;;;;;;18.65;4.35;;;7.00;99.90;;;;;;5079263;28;20085;-71
2022/12/30 03:21:16;;;;;;;19.50;4.25;;;7.00;99.90;;;;;;5108997;28;20079;-71
2022/12/30 03:29:18;;;;;;;24.10;3.85;;;7.00;99.90;;;;;;5107236;27;20024;-73
2022/12/30 03:31:44;;;;;;;19.27;4.18;;;7.00;99.90;;;;;;5088044;28;20032;-73
2022/12/30 03:34:10;;;;;;;15.45;3.42;;;7.00;99.90;;;;;;5107823;28;20093;-73
2022/12/30 03:36:44;;;;;;;19.55;3.65;;;7.00;99.90;;;;;;5105438;28;20056;-73
2022/12/30 03:39:18;;;;;;;20.70;4.50;;;7.10;99.90;;;;;;5089312;28;20670;-73
2022/12/30 03:41:47;;;;;;;12.77;3.75;;;7.10;99.90;;;;;;5106513;28;20096;-73
2022/12/30 03:44:13;;;;;;;23.67;5.25;;;7.10;99.90;;;;;;5085528;28;20032;-73
2022/12/30 03:46:41;;;;;;;16.75;4.05;;;7.10;99.90;;;;;;5106665;28;20027;-71
2022/12/30 03:49:07;;;;;;;18.67;4.05;;;7.10;99.90;;;;;;5088710;28;20130;-72
2022/12/30 03:51:33;;;;;;;16.95;3.45;;;7.10;99.90;;;;;;5067084;28;20103;-73
2022/12/30 03:53:59;;;;;;;15.48;3.60;;;7.10;99.90;;;;;;5104894;28;20443;-73
2022/12/30 03:56:25;;;;;;;20.60;4.82;;;7.10;99.90;;;;;;5090643;28;20521;-71
2022/12/30 03:58:50;;;;;;;16.75;3.60;;;7.10;99.90;;;;;;5108484;28;20023;-70
2022/12/30 04:01:16;;;;;;;15.85;3.97;;;7.10;99.90;;;;;;5069388;28;20036;-70
2022/12/30 04:03:42;;;;;;;17.13;4.50;;;7.10;99.90;;;;;;5086292;28;20506;-72
2022/12/30 04:06:07;;;;;;;17.83;4.53;;;7.20;99.90;;;;;;5108139;28;20183;-72
2022/12/30 04:08:33;;;;;;;19.45;4.10;;;7.20;99.90;;;;;;5069393;28;20028;-73
2022/12/30 04:10:59;;;;;;;15.35;3.65;;;7.20;99.90;;;;;;5106140;28;20023;-72
2022/12/30 04:13:25;;;;;;;15.15;3.95;;;7.20;99.90;;;;;;5104932;28;20019;-72
2022/12/30 04:15:51;;;;;;;19.83;4.32;;;7.20;99.90;;;;;;5094118;28;20052;-73
2022/12/30 04:18:17;;;;;;;18.60;4.13;;;7.20;99.90;;;;;;5115388;28;20079;-72
2022/12/30 04:20:45;;;;;;;22.02;4.15;;;7.20;99.90;;;;;;5087840;28;20051;-73
2022/12/30 04:23:11;;;;;;;22.33;3.83;;;7.20;99.90;;;;;;5111540;28;20028;-73
2022/12/30 04:25:37;;;;;;;15.02;4.43;;;7.20;99.90;;;;;;5099311;28;20092;-72
2022/12/30 04:28:03;;;;;;;16.48;4.30;;;7.20;99.90;;;;;;5118143;28;20461;-73
2022/12/30 04:30:29;;;;;;;17.00;4.22;;;7.20;99.90;;;;;;5092111;28;20069;-72
2022/12/30 04:32:54;;;;;;;18.38;3.47;;;7.20;99.90;;;;;;5107337;28;20533;-74
2022/12/30 04:35:20;;;;;;;18.00;3.58;;;7.20;99.90;;;;;;5109515;28;20136;-72
2022/12/30 04:37:49;;;;;;;17.35;3.65;;;7.20;99.90;;;;;;5107668;28;20034;-72
2022/12/30 04:40:16;;;;;;;16.63;3.85;;;7.20;99.90;;;;;;5083553;28;20023;-72
2022/12/30 04:42:42;;;;;;;14.90;3.35;;;7.20;99.90;;;;;;5103140;28;20034;-72
2022/12/30 04:45:08;;;;;;;17.20;3.70;;;7.20;99.90;;;;;;5087967;28;20031;-72
2022/12/30 04:47:34;;;;;;;17.90;3.28;;;7.20;99.90;;;;;;5106501;28;20041;-72
2022/12/30 04:49:59;;;;;;;11.73;3.55;;;7.20;99.90;;;;;;5106133;28;20034;-72
2022/12/30 04:52:25;;;;;;;16.60;3.90;;;7.30;99.90;;;;;;5086634;28;20023;-72
2022/12/30 04:54:51;;;;;;;20.38;3.53;;;7.20;99.90;;;;;;5105203;28;20035;-72
2022/12/30 04:57:17;;;;;;;18.02;3.45;;;7.30;99.90;;;;;;5105037;28;20035;-71
2022/12/30 04:59:42;;;;;;;20.42;3.78;;;7.30;99.90;;;;;;5086397;28;20031;-72
2022/12/30 05:02:08;;;;;;;10.57;3.28;;;7.30;99.90;;;;;;5088226;28;20524;-72
2022/12/30 05:04:35;;;;;;;18.35;4.32;;;7.30;99.90;;;;;;5092927;28;20038;-72
2022/12/30 05:07:01;;;;;;;17.90;3.90;;;7.30;99.90;;;;;;5072193;28;20525;-72
2022/12/30 05:09:27;;;;;;;20.27;4.05;;;7.20;99.90;;;;;;5107695;28;20585;-73
2022/12/30 05:11:52;;;;;;;32.92;5.07;;;7.20;99.90;;;;;;5087659;28;20039;-73
2022/12/30 05:14:18;;;;;;;25.88;3.92;;;7.20;99.90;;;;;;5084515;28;20152;-71
2022/12/30 05:16:44;;;;;;;16.35;4.03;;;7.10;99.90;;;;;;5087305;28;20047;-72
2022/12/30 05:19:10;;;;;;;15.93;3.47;;;7.10;99.90;;;;;;5107814;28;20072;-72
2022/12/30 05:21:35;;;;;;;17.02;3.70;;;7.10;99.90;;;;;;5107750;28;20117;-72
2022/12/30 05:26:46;;;;;;;21.95;4.80;;;7.10;99.90;;;;;;5109292;28;20031;-71
2022/12/30 05:29:11;;;;;;;16.20;3.63;;;7.00;99.90;;;;;;5106053;28;20023;-72
2022/12/30 05:31:37;;;;;;;20.40;4.75;;;7.00;99.90;;;;;;5104516;28;20030;-72
2022/12/30 05:34:03;;;;;;;16.33;4.50;;;7.00;99.90;;;;;;5086757;28;20081;-72
2022/12/30 05:36:28;;;;;;;22.25;4.57;;;7.00;99.90;;;;;;5091799;28;20055;-72
2022/12/30 05:38:54;;;;;;;16.80;4.22;;;7.00;99.90;;;;;;5107839;28;20401;-73
2022/12/30 05:41:20;;;;;;;17.85;4.43;;;7.00;99.90;;;;;;5108186;28;20103;-73
2022/12/30 05:43:47;;;;;;;16.27;5.53;;;7.00;99.90;;;;;;5087380;28;20028;-72
2022/12/30 05:46:12;;;;;;;20.58;4.35;;;7.00;99.90;;;;;;5104790;28;20024;-72
2022/12/30 05:48:38;;;;;;;21.08;5.45;;;7.00;99.90;;;;;;5088625;28;20028;-72
2022/12/30 05:51:04;;;;;;;17.25;4.03;;;7.00;99.90;;;;;;5090150;28;20150;-73
2022/12/30 05:53:30;;;;;;;17.40;4.78;;;7.00;99.90;;;;;;5091712;28;20016;-73
2022/12/30 05:55:58;;;;;;;15.20;4.28;;;7.00;99.90;;;;;;5090741;28;20047;-72
2022/12/30 05:58:24;;;;;;;15.50;5.10;;;7.00;99.90;;;;;;5106589;28;20092;-73
2022/12/30 06:00:49;;;;;;;16.38;4.93;;;7.00;99.90;;;;;;5110892;28;20049;-72
2022/12/30 06:03:16;;;;;;;18.88;5.00;;;7.00;99.90;;;;;;5087998;28;20539;-72
2022/12/30 06:05:42;;;;;;;19.00;4.97;;;7.00;99.90;;;;;;5091708;28;20507;-72
2022/12/30 06:08:09;;;;;;;19.42;3.95;;;7.00;99.90;;;;;;5109003;28;20027;-72
2022/12/30 06:10:35;;;;;;;16.10;5.03;;;7.00;99.90;;;;;;5087388;28;20028;-73
2022/12/30 06:13:00;;;;;;;16.30;5.35;;;7.00;99.90;;;;;;5090293;28;20032;-72
2022/12/30 06:15:26;;;;;;;18.52;4.28;;;7.00;99.90;;;;;;5107459;28;20100;-72
2022/12/30 06:17:52;;;;;;;24.67;6.05;;;6.90;99.90;;;;;;5088244;28;20039;-73
2022/12/30 06:20:18;;;;;;;20.02;5.75;;;7.00;99.90;;;;;;5104004;28;20491;-72
2022/12/30 06:22:43;;;;;;;20.10;5.30;;;6.90;99.90;;;;;;5111707;28;20556;-73
2022/12/30 06:25:09;;;;;;;16.00;4.35;;;6.90;99.90;;;;;;5104932;28;20077;-72
2022/12/30 06:27:35;;;;;;;14.60;4.60;;;6.90;99.90;;;;;;5107761;28;20127;-73
2022/12/30 06:30:00;;;;;;;22.50;5.00;;;6.80;99.90;;;;;;5107243;28;20031;-72
2022/12/30 06:32:26;;;;;;;16.77;4.60;;;6.80;99.90;;;;;;5109269;28;20034;-73
2022/12/30 06:34:52;;;;;;;19.05;4.03;;;6.80;99.90;;;;;;5112018;28;20461;-73
2022/12/30 06:37:17;;;;;;;18.67;5.45;;;6.70;99.90;;;;;;5106231;28;20106;-73
2022/12/30 06:39:43;;;;;;;24.52;5.60;;;6.60;99.90;;;;;;5104143;28;20028;-73
2022/12/30 06:42:09;;;;;;;17.92;4.90;;;6.60;99.90;;;;;;5087451;28;20320;-73
2022/12/30 06:44:34;;;;;;;24.48;5.50;;;6.50;99.90;;;;;;5103874;28;20486;-73
2022/12/30 06:47:00;;;;;;;16.75;5.00;;;6.50;99.90;;;;;;5105211;28;20565;-73
2022/12/30 06:49:26;;;;;;;19.02;5.07;;;6.50;99.90;;;;;;5070048;28;20031;-72
2022/12/30 06:51:51;;;;;;;28.38;5.85;;;6.40;99.90;;;;;;5104372;28;20024;-72
2022/12/30 06:54:17;;;;;;;20.83;5.20;;;6.40;99.90;;;;;;5088763;28;20032;-72
2022/12/30 06:56:43;;;;;;;20.88;4.97;;;6.30;99.90;;;;;;5105666;28;20490;-72
2022/12/30 06:59:08;;;;;;;19.95;4.95;;;6.30;99.90;;;;;;5089340;28;20039;-72
2022/12/30 07:01:34;;;;;;;16.17;4.90;;;6.30;99.90;;;;;;5104367;28;20024;-72
2022/12/30 07:04:00;;;;;;;21.33;5.07;;;6.20;99.90;;;;;;5089862;28;20031;-72
2022/12/30 07:06:25;;;;;;;15.38;4.60;;;6.20;99.90;;;;;;5103101;27;20043;-72
2022/12/30 07:08:51;;;;;;;17.33;5.03;;;6.40;99.90;;;;;;5089077;28;20033;-73
2022/12/30 07:11:17;;;;;;;19.33;4.78;;;6.30;99.90;;;;;;5104579;28;20088;-72
2022/12/30 07:13:42;;;;;;;13.85;5.20;;;6.20;99.90;;;;;;5108810;28;20039;-72
2022/12/30 07:16:08;;;;;;;16.20;4.75;;;6.20;99.90;;;;;;5102100;28;20023;-72
2022/12/30 07:18:34;;;;;;;26.50;5.35;;;6.10;99.90;;;;;;5105154;28;20032;-72
2022/12/30 07:20:59;;;;;;;19.90;4.30;;;6.10;99.90;;;;;;5090680;28;20509;-72
2022/12/30 07:23:25;;;;;;;22.15;5.65;;;6.10;99.90;;;;;;5090277;28;20423;-72
2022/12/30 07:25:51;;;;;;;23.38;5.72;;;6.10;99.90;;;;;;5070992;28;20502;-72
2022/12/30 07:28:16;;;;;;;19.85;4.53;;;6.00;99.90;;;;;;5089488;28;20110;-72
2022/12/30 07:30:42;;;;;;;20.35;5.60;;;6.00;99.90;;;;;;5103761;28;20039;-72
2022/12/30 07:33:08;;;;;;;21.10;5.40;;;5.90;99.90;;;;;;5108623;28;20364;-72
2022/12/30 07:35:34;;;;;;;22.38;4.72;;;5.90;99.90;;;;;;5103013;28;20035;-72
2022/12/30 07:38:01;;;;;;;19.15;5.57;;;6.00;99.90;;;;;;5102513;28;20042;-72
2022/12/30 07:40:27;;;;;;;22.90;5.38;;;5.90;99.90;;;;;;5083053;28;20088;-72
2022/12/30 07:42:52;;;;;;;23.40;5.45;;;6.00;99.90;;;;;;5087843;28;20070;-72
2022/12/30 07:45:18;;;;;;;22.73;6.40;;;5.90;99.90;;;;;;5090450;28;20372;-72
2022/12/30 07:47:44;;;;;;;18.27;7.00;;;5.90;99.90;;;;;;5082919;28;20080;-72
2022/12/30 07:50:10;;;;;;;24.48;5.60;;;5.90;99.90;;;;;;5080853;28;20066;-71
2022/12/30 07:52:36;;;;;;;20.50;5.57;;;5.90;99.90;;;;;;5097742;28;20080;-73
2022/12/30 07:55:02;;;;;;;20.20;5.22;;;5.90;99.90;;;;;;5086900;28;20097;-71
2022/12/30 07:57:28;;;;;;;20.55;5.47;;;5.90;99.90;;;;;;5068021;28;20031;-72
2022/12/30 07:59:55;;;;;;;20.10;5.10;;;5.90;99.90;;;;;;5110435;28;20096;-72
2022/12/30 08:02:21;;;;;;;18.10;4.72;;;5.90;99.90;;;;;;5105025;28;20056;-73
2022/12/30 08:04:46;;;;;;;18.33;4.63;;;5.90;99.90;;;;;;5119173;28;20050;-72
2022/12/30 08:07:14;;;;;;;21.42;4.97;;;5.90;99.90;;;;;;5108779;28;20487;-72
2022/12/30 08:09:40;;;;;;;20.60;4.95;;;5.90;99.90;;;;;;5101622;28;20103;-72
2022/12/30 08:12:05;;;;;;;26.08;5.25;;;5.90;99.90;;;;;;5105410;28;20063;-72
2022/12/30 08:14:31;;;;;;;21.92;4.65;;;5.90;99.90;;;;;;5107743;28;20031;-72
2022/12/30 08:16:57;;;;;;;22.73;5.70;;;5.90;99.90;;;;;;5102868;28;20020;-73
2022/12/30 08:19:23;;;;;;;20.48;5.88;;;5.90;99.90;;;;;;5088554;28;20122;-72
2022/12/30 08:21:48;;;;;;;10.82;4.15;;;5.90;99.90;;;;;;5087101;28;20035;-71
2022/12/30 08:24:14;;;;;;;14.05;3.63;;;5.90;99.90;;;;;;5091778;28;20114;-72
2022/12/30 08:26:40;;;;;;;21.02;4.70;;;5.90;99.90;;;;;;5089919;28;20028;-72
2022/12/30 08:29:05;;;;;;;19.13;4.60;;;6.00;99.90;;;;;;5085651;28;20093;-72
2022/12/30 08:31:31;;;;;;;18.60;4.88;;;5.90;99.90;;;;;;5067634;28;20035;-72
2022/12/30 08:33:58;;;;;;;20.90;4.57;;;5.90;99.90;;;;;;5102455;28;20049;-73
2022/12/30 08:36:26;;;;;;;12.27;4.10;;;5.90;99.90;;;;;;5098020;28;20390;-72
2022/12/30 08:38:54;;;;;;;17.75;4.93;;;6.00;99.90;;;;;;5100435;28;20039;-72
2022/12/30 08:41:32;;;;;;;20.60;4.57;;;6.00;99.90;;;;;;5084890;28;20031;-72
2022/12/30 08:43:59;;;;;;;21.90;4.70;;;6.00;99.90;;;;;;5100528;28;20059;-71
2022/12/30 08:46:26;;;;;;;18.73;4.18;;;6.00;99.90;;;;;;5084542;28;20048;-73
2022/12/30 08:48:52;;;;;;;19.08;4.78;;;6.00;99.90;;;;;;5083090;28;20028;-73
2022/12/30 08:51:19;;;;;;;25.15;4.95;;;6.00;99.90;;;;;;5086244;28;20051;-73
2022/12/30 08:53:45;;;;;;;17.27;4.78;;;6.00;99.90;;;;;;5084868;28;20028;-73
2022/12/30 08:56:15;;;;;;;17.00;4.18;;;6.00;99.90;;;;;;5092224;28;20035;-73
2022/12/30 08:58:41;;;;;;;25.05;5.53;;;6.10;99.90;;;;;;5104791;28;20028;-73
2022/12/30 09:01:10;;;;;;;20.10;4.13;;;6.10;99.90;;;;;;5089437;28;20046;-73
2022/12/30 09:03:37;;;;;;;22.23;5.18;;;6.10;99.90;;;;;;5094274;28;20103;-73
2022/12/30 09:06:03;;;;;;;15.95;3.70;;;6.10;99.90;;;;;;5106319;28;20565;-80
2022/12/30 09:08:29;;;;;;;10.57;3.63;;;6.20;99.90;;;;;;5087023;28;20070;-73
2022/12/30 09:11:04;;;;;;;21.67;5.22;;;6.20;99.90;;;;;;5083838;28;20111;-74
2022/12/30 09:13:31;;;;;;;21.73;3.80;;;6.20;99.90;;;;;;5088940;28;20447;-74
2022/12/30 09:15:58;;;;;;;18.13;3.72;;;6.30;99.90;;;;;;5101932;28;20016;-73
2022/12/30 09:18:24;;;;;;;15.38;3.38;;;6.80;99.90;;;;;;5089932;28;20479;-73
2022/12/30 09:20:50;;;;;;;22.38;4.28;;;6.60;99.90;;;;;;5084532;28;20437;-74
2022/12/30 09:23:16;;;;;;;21.63;3.97;;;6.50;99.90;;;;;;5124056;28;20019;-74
2022/12/30 09:25:42;;;;;;;16.23;3.47;;;6.40;99.90;;;;;;5094329;28;20224;-74
2022/12/30 09:28:08;;;;;;;12.07;4.15;;;6.40;99.90;;;;;;5101392;28;20115;-73
2022/12/30 09:30:34;;;;;;;17.13;4.07;;;6.40;99.90;;;;;;5099719;28;20069;-73
2022/12/30 09:32:59;;;;;;;18.65;3.47;;;6.40;99.90;;;;;;5079679;28;20038;-74
2022/12/30 09:35:25;;;;;;;15.70;3.33;;;6.40;99.90;;;;;;5079834;28;20111;-74
2022/12/30 09:37:51;;;;;;;12.95;3.30;;;6.50;99.90;;;;;;5086636;28;20031;-73
2022/12/30 09:40:23;;;;;;;19.88;3.90;;;6.50;99.90;;;;;;5098259;28;20036;-74
2022/12/30 09:45:51;;;;;;;18.45;3.92;;;6.50;99.90;;;;;;5096298;28;20364;-74
2022/12/30 09:48:23;;;;;;;11.95;3.33;;;6.60;99.90;;;;;;5098006;28;20120;-74
2022/12/30 09:50:54;;;;;;;17.50;3.25;;;6.60;99.90;;;;;;5086437;28;20034;-72
2022/12/30 09:53:41;;;;;;;16.48;2.97;;;6.70;99.90;;;;;;5070482;28;20094;-72
2022/12/30 09:56:17;;;;;;;12.02;2.88;;;6.70;99.90;;;;;;5083662;28;20028;-73
2022/12/30 09:58:45;;;;;;;14.18;2.65;;;6.70;99.90;;;;;;5105725;28;20120;-74
2022/12/30 10:01:21;;;;;;;19.98;3.03;;;6.70;99.90;;;;;;5089914;28;20495;-74
2022/12/30 10:03:47;;;;;;;11.88;2.92;;;6.70;99.90;;;;;;5088402;28;20042;-74
2022/12/30 10:06:21;;;;;;;13.07;2.90;;;6.80;99.90;;;;;;5084708;28;20027;-74
2022/12/30 10:09:25;;;;;;;15.50;3.10;;;6.80;99.90;;;;;;5095768;28;20047;-73
2022/12/30 10:12:05;;;;;;;21.17;3.28;;;6.80;99.90;;;;;;5080233;28;20020;-75
2022/12/30 10:14:59;;;;;;;20.40;3.03;;;6.80;99.90;;;;;;5085458;28;20027;-74
2022/12/30 10:17:31;;;;;;;19.27;2.60;;;6.90;99.90;;;;;;5098337;27;20062;-74
2022/12/30 10:20:28;;;;;;;12.02;2.80;;;6.80;99.90;;;;;;5103703;28;20027;-74
2022/12/30 10:23:17;;;;;;;19.55;2.95;;;6.80;99.90;;;;;;5091200;28;20023;-74
2022/12/30 10:25:57;;;;;;;14.95;2.47;;;6.90;99.90;;;;;;5085663;28;20049;-74
2022/12/30 10:28:36;;;;;;;17.90;2.75;;;6.90;99.90;;;;;;5072907;28;20099;-74
2022/12/30 10:31:07;;;;;;;14.00;3.00;;;6.90;99.90;;;;;;5091937;28;20054;-71
2022/12/30 10:33:35;;;;;;;11.57;2.40;;;6.90;99.90;;;;;;5106490;28;20016;-70
2022/12/30 10:36:25;;;;;;;12.45;2.83;;;6.90;99.90;;;;;;5103218;28;20020;-70
2022/12/30 10:38:59;;;;;;;14.00;2.92;;;7.00;99.90;;;;;;5086284;28;20037;-73
2022/12/30 10:41:41;;;;;;;9.57;2.17;;;7.00;99.90;;;;;;5086508;27;20065;-74
2022/12/30 10:44:07;;;;;;;16.98;3.25;;;7.10;99.90;;;;;;5083034;28;20028;-71
2022/12/30 10:46:46;;;;;;;18.00;2.70;;;7.10;99.90;;;;;;5105136;28;20127;-71
2022/12/30 10:49:28;;;;;;;11.70;2.53;;;7.20;99.90;;;;;;5107544;28;20127;-71
2022/12/30 10:51:55;;;;;;;13.35;3.20;;;7.20;99.90;;;;;;5106063;28;20024;-71
2022/12/30 10:54:21;;;;;;;12.68;2.38;;;7.20;99.90;;;;;;5104780;28;20114;-70
2022/12/30 10:56:47;;;;;;;12.95;3.10;;;7.20;99.90;;;;;;5083365;28;20118;-70
2022/12/30 10:59:17;;;;;;;14.55;2.75;;;7.20;99.90;;;;;;5087171;28;20038;-71
2022/12/30 11:01:48;;;;;;;13.63;2.88;;;7.20;99.90;;;;;;5105670;28;20024;-71
2022/12/30 11:04:43;;;;;;;;;;;7.30;99.90;;;;;;5073184;28;20503;-71
2022/12/30 11:07:15;;;;;;;9.68;2.17;;;7.30;99.90;;;;;;5070777;28;20028;-71
2022/12/30 11:09:41;;;;;;;7.82;2.28;;;7.30;99.90;;;;;;5086633;27;20546;-72
2022/12/30 11:15:11;;;;;;;14.23;2.63;;;7.30;99.90;;;;;;5099941;28;20027;-73
2022/12/30 11:17:44;;;;;;;6.65;2.08;;;7.40;99.90;;;;;;5088582;28;20085;-73
2022/12/30 11:20:12;;;;;;;13.63;2.38;;;7.40;99.90;;;;;;5085272;28;20515;-73
2022/12/30 11:22:49;;;;;;;12.00;2.17;;;7.40;99.90;;;;;;5107655;28;20031;-73
2022/12/30 11:25:23;;;;;;;11.35;1.80;;;7.40;99.90;;;;;;5102440;28;20804;-74
2022/12/30 11:27:53;;;;;;;14.13;2.50;;;7.40;99.90;;;;;;5085246;28;20526;-73
2022/12/30 11:30:38;;;;;;;10.43;2.22;;;7.50;99.90;;;;;;5085693;28;20095;-74
2022/12/30 11:33:06;;;;;;;10.20;2.65;;;7.50;99.90;;;;;;5107652;28;20399;-74
2022/12/30 11:35:58;;;;;;;7.82;2.13;;;7.50;99.90;;;;;;5075397;28;20024;-74
2022/12/30 11:38:34;;;;;;;14.70;2.28;;;7.50;99.90;;;;;;5062535;27;20387;-74
2022/12/30 11:41:28;;;;;;;8.85;2.00;;;7.60;99.90;;;;;;5066833;28;20598;-74
2022/12/30 11:43:56;;;;;;;9.02;2.00;;;7.50;99.90;;;;;;5100622;27;20110;-74
2022/12/30 11:46:35;;;;;;;14.68;2.83;;;7.50;99.90;;;;;;5103301;28;20076;-74
2022/12/30 11:49:04;;;;;;;8.20;1.80;;;7.50;99.90;;;;;;5101175;28;20042;-71
2022/12/30 11:51:42;;;;;;;12.73;2.13;;;7.60;99.90;;;;;;5105573;28;20175;-72
2022/12/30 11:54:10;;;;;;;10.73;2.00;;;7.60;99.90;;;;;;5107171;28;20569;-72
2022/12/30 11:56:57;;;;;;;7.32;2.65;;;7.60;99.90;;;;;;5082021;28;20031;-72
2022/12/30 11:59:42;;;;;;;7.72;1.83;;;7.50;99.90;;;;;;5107074;28;20149;-72
2022/12/30 12:02:21;;;;;;;8.02;1.83;;;7.50;99.90;;;;;;5104025;28;20058;-73
2022/12/30 12:04:47;;;;;;;8.88;2.00;;;7.60;99.90;;;;;;5101894;28;20115;-72
2022/12/30 12:07:16;;;;;;;10.13;2.08;;;7.50;99.90;;;;;;5078701;28;20089;-75
2022/12/30 12:09:54;;;;;;;11.13;2.20;;;7.60;99.90;;;;;;5077417;28;20035;-74
2022/12/30 12:12:24;;;;;;;9.25;1.77;;;7.50;99.90;;;;;;5079923;28;20023;-75
2022/12/30 12:15:02;;;;;;;9.77;1.73;;;7.50;99.90;;;;;;5085881;28;20039;-75
2022/12/30 12:17:42;;;;;;;8.55;1.83;;;7.60;99.90;;;;;;5083424;28;20051;-72
2022/12/30 12:20:19;;;;;;;8.25;1.60;;;7.60;99.90;;;;;;5084138;28;20081;-70
2022/12/30 12:23:03;;;;;;;8.45;2.53;;;7.60;99.90;;;;;;5092262;28;20043;-71
2022/12/30 12:25:45;;;;;;;14.57;2.25;;;7.60;99.90;;;;;;5087484;28;20462;-71
2022/12/30 12:28:12;;;;;;;16.83;2.20;;;7.60;99.90;;;;;;5105912;28;20566;-71
2022/12/30 12:30:49;;;;;;;7.10;1.70;;;7.60;99.90;;;;;;5108341;28;20436;-71
2022/12/30 12:33:39;;;;;;;8.45;2.45;;;7.70;99.90;;;;;;5104159;28;20020;-71
2022/12/30 12:36:25;;;;;;;12.87;2.63;;;7.70;99.90;;;;;;5084637;28;20019;-71
2022/12/30 12:39:02;;;;;;;9.02;1.88;;;7.70;99.90;;;;;;5102238;27;20277;-71
2022/12/30 12:42:03;;;;;;;8.98;1.90;;;7.70;99.90;;;;;;5085614;28;20051;-71
2022/12/30 12:44:48;;;;;;;12.52;1.58;;;7.80;99.90;;;;;;5064920;28;20042;-73
2022/12/30 12:47:47;;;;;;;9.50;1.83;;;7.80;99.90;;;;;;5081086;27;20568;-71
2022/12/30 12:50:22;;;;;;;7.55;1.63;;;7.80;99.90;;;;;;5112295;28;20028;-71
2022/12/30 12:53:00;;;;;;;9.88;1.83;;;7.90;99.90;;;;;;5071404;28;20019;-72
2022/12/30 12:55:35;;;;;;;9.18;1.67;;;7.90;99.90;;;;;;5107685;28;20028;-73
2022/12/30 12:58:04;;;;;;;8.32;2.13;;;8.00;99.90;;;;;;5083227;28;20024;-74
2022/12/30 13:00:56;;;;;;;8.05;1.50;;;8.00;99.90;;;;;;5064548;28;20438;-74
2022/12/30 13:03:34;;;;;;;11.40;1.80;;;8.00;99.90;;;;;;5034959;28;20108;-73
2022/12/30 13:06:18;;;;;;;8.40;1.83;;;7.90;99.90;;;;;;5090911;28;20031;-74
2022/12/30 13:09:22;;;;;;;8.57;1.80;;;7.90;99.90;;;;;;5082583;28;20028;-71
2022/12/30 13:12:01;;;;;;;6.43;1.95;;;7.90;99.90;;;;;;5108086;27;20405;-74
2022/12/30 13:14:35;;;;;;;7.53;1.80;;;7.90;99.90;;;;;;5086848;28;21494;-71
2022/12/30 13:17:10;;;;;;;8.65;1.85;;;7.80;99.90;;;;;;5083512;28;20030;-73
2022/12/30 13:19:38;;;;;;;10.88;1.98;;;7.80;99.90;;;;;;5101596;27;20035;-75
2022/12/30 13:22:11;;;;;;;6.75;2.08;;;7.80;99.90;;;;;;5107421;28;20046;-70
2022/12/30 13:24:43;;;;;;;8.70;2.17;;;7.80;99.90;;;;;;5087527;28;20057;-75
2022/12/30 13:27:13;;;;;;;;;;;7.80;99.90;;;;;;5109397;28;20026;-71
2022/12/30 13:29:40;;;;;;;11.90;2.10;;;7.80;99.90;;;;;;5089792;28;20677;-72
2022/12/30 13:32:24;;;;;;;8.07;2.15;;;7.70;99.90;;;;;;5086836;28;20096;-74
2022/12/30 13:35:19;;;;;;;5.88;1.80;;;7.70;99.90;;;;;;5085293;28;20032;-70
2022/12/30 13:38:03;;;;;;;8.98;1.95;;;7.70;99.90;;;;;;5085677;28;20095;-73
2022/12/30 13:40:41;;;;;;;10.25;2.45;;;7.70;99.90;;;;;;5087476;28;20610;-72
2022/12/30 13:43:19;;;;;;;10.27;1.63;;;7.70;99.90;;;;;;5085977;28;20391;-72
2022/12/30 13:45:47;;;;;;;9.30;2.13;;;7.70;99.90;;;;;;5087645;28;20088;-72
2022/12/30 13:48:24;;;;;;;10.77;2.33;;;7.70;99.90;;;;;;5097693;28;20032;-72
2022/12/30 13:51:16;;;;;;;11.18;2.53;;;7.80;99.90;;;;;;5093541;27;20597;-72
2022/12/30 13:53:48;;;;;;;9.20;1.75;;;7.70;99.90;;;;;;5088622;28;20466;-72
2022/12/30 13:56:36;;;;;;;11.70;2.15;;;7.60;99.90;;;;;;5082274;28;20023;-73
2022/12/30 13:59:03;;;;;;;7.15;2.10;;;7.60;99.90;;;;;;5083593;28;20023;-73
2022/12/30 14:01:32;;;;;;;6.40;2.28;;;7.60;99.90;;;;;;5088179;28;20057;-72
2022/12/30 14:04:10;;;;;;;10.52;2.42;;;7.60;99.90;;;;;;5083602;27;20096;-73
2022/12/30 14:06:50;;;;;;;16.27;3.42;;;7.60;99.90;;;;;;5083577;28;20027;-73